sensor_id;sensor_type;location;lat;lon;timestamp;P1;durP1;ratioP1;P2;durP2;ratioP2
76021;SDS011;64718;52.124;6.226;2024-02-23T00:02:30;0.43;;;0.30;;
76021;SDS011;64718;52.124;6.226;2024-02-23T00:04:56;0.88;;;0.20;;
76021;SDS011;64718;52.124;6.226;2024-02-23T00:07:24;1.20;;;0.88;;
76021;SDS011;64718;52.124;6.226;2024-02-23T00:09:51;1.02;;;1.00;;
76021;SDS011;64718;52.124;6.226;2024-02-23T00:12:17;0.60;;;0.60;;
76021;SDS011;64718;52.124;6.226;2024-02-23T00:14:44;1.05;;;0.90;;
76021;SDS011;64718;52.124;6.226;2024-02-23T00:17:10;1.55;;;0.43;;
76021;SDS011;64718;52.124;6.226;2024-02-23T00:19:37;0.75;;;0.65;;
76021;SDS011;64718;52.124;6.226;2024-02-23T00:22:04;2.25;;;0.85;;
76021;SDS011;64718;52.124;6.226;2024-02-23T00:24:32;1.33;;;1.13;;
76021;SDS011;64718;52.124;6.226;2024-02-23T00:26:58;2.22;;;0.82;;
76021;SDS011;64718;52.124;6.226;2024-02-23T00:29:25;1.65;;;0.85;;
76021;SDS011;64718;52.124;6.226;2024-02-23T00:31:51;1.67;;;0.82;;
76021;SDS011;64718;52.124;6.226;2024-02-23T00:34:18;3.33;;;1.40;;
76021;SDS011;64718;52.124;6.226;2024-02-23T00:36:44;1.73;;;0.95;;
76021;SDS011;64718;52.124;6.226;2024-02-23T00:39:11;2.38;;;1.50;;
76021;SDS011;64718;52.124;6.226;2024-02-23T00:41:39;1.95;;;1.08;;
76021;SDS011;64718;52.124;6.226;2024-02-23T00:44:05;0.65;;;0.65;;
76021;SDS011;64718;52.124;6.226;2024-02-23T00:46:32;0.88;;;0.60;;
76021;SDS011;64718;52.124;6.226;2024-02-23T00:48:59;1.63;;;0.50;;
76021;SDS011;64718;52.124;6.226;2024-02-23T00:51:25;2.38;;;1.00;;
76021;SDS011;64718;52.124;6.226;2024-02-23T00:53:52;3.92;;;0.95;;
76021;SDS011;64718;52.124;6.226;2024-02-23T00:56:18;1.77;;;1.17;;
76021;SDS011;64718;52.124;6.226;2024-02-23T00:58:46;2.63;;;1.45;;
76021;SDS011;64718;52.124;6.226;2024-02-23T01:01:12;1.67;;;0.70;;
76021;SDS011;64718;52.124;6.226;2024-02-23T01:03:39;3.20;;;1.02;;
76021;SDS011;64718;52.124;6.226;2024-02-23T01:06:06;1.70;;;1.33;;
76021;SDS011;64718;52.124;6.226;2024-02-23T01:08:32;3.08;;;1.45;;
76021;SDS011;64718;52.124;6.226;2024-02-23T01:10:59;6.38;;;1.30;;
76021;SDS011;64718;52.124;6.226;2024-02-23T01:13:26;1.55;;;1.00;;
76021;SDS011;64718;52.124;6.226;2024-02-23T01:15:53;4.25;;;1.85;;
76021;SDS011;64718;52.124;6.226;2024-02-23T01:18:20;2.88;;;1.42;;
76021;SDS011;64718;52.124;6.226;2024-02-23T01:20:47;2.25;;;1.25;;
76021;SDS011;64718;52.124;6.226;2024-02-23T01:23:13;3.13;;;1.02;;
76021;SDS011;64718;52.124;6.226;2024-02-23T01:25:40;3.28;;;0.60;;
76021;SDS011;64718;52.124;6.226;2024-02-23T01:28:06;0.40;;;0.40;;
76021;SDS011;64718;52.124;6.226;2024-02-23T01:30:33;1.67;;;0.80;;
76021;SDS011;64718;52.124;6.226;2024-02-23T01:33:00;1.10;;;0.10;;
76021;SDS011;64718;52.124;6.226;2024-02-23T01:35:27;0.85;;;0.35;;
76021;SDS011;64718;52.124;6.226;2024-02-23T01:37:55;1.10;;;0.50;;
76021;SDS011;64718;52.124;6.226;2024-02-23T01:40:21;3.65;;;0.93;;
76021;SDS011;64718;52.124;6.226;2024-02-23T01:42:48;1.50;;;1.00;;
76021;SDS011;64718;52.124;6.226;2024-02-23T01:45:15;3.15;;;1.00;;
76021;SDS011;64718;52.124;6.226;2024-02-23T01:47:41;2.63;;;1.30;;
76021;SDS011;64718;52.124;6.226;2024-02-23T01:50:09;2.80;;;1.83;;
76021;SDS011;64718;52.124;6.226;2024-02-23T01:52:37;7.13;;;2.80;;
76021;SDS011;64718;52.124;6.226;2024-02-23T01:55:04;5.78;;;4.22;;
76021;SDS011;64718;52.124;6.226;2024-02-23T01:57:31;6.25;;;3.80;;
76021;SDS011;64718;52.124;6.226;2024-02-23T01:59:59;7.10;;;4.40;;
76021;SDS011;64718;52.124;6.226;2024-02-23T02:02:25;6.07;;;2.88;;
76021;SDS011;64718;52.124;6.226;2024-02-23T02:04:53;9.75;;;4.55;;
76021;SDS011;64718;52.124;6.226;2024-02-23T02:07:21;7.35;;;4.57;;
76021;SDS011;64718;52.124;6.226;2024-02-23T02:09:48;6.80;;;5.20;;
76021;SDS011;64718;52.124;6.226;2024-02-23T02:12:25;4.57;;;3.15;;
76021;SDS011;64718;52.124;6.226;2024-02-23T02:14:52;4.75;;;3.47;;
76021;SDS011;64718;52.124;6.226;2024-02-23T02:17:19;9.60;;;4.15;;
76021;SDS011;64718;52.124;6.226;2024-02-23T02:19:46;4.65;;;1.92;;
76021;SDS011;64718;52.124;6.226;2024-02-23T02:22:12;6.93;;;1.95;;
76021;SDS011;64718;52.124;6.226;2024-02-23T02:24:40;3.67;;;2.65;;
76021;SDS011;64718;52.124;6.226;2024-02-23T02:27:08;2.83;;;1.92;;
76021;SDS011;64718;52.124;6.226;2024-02-23T02:29:35;6.63;;;2.95;;
76021;SDS011;64718;52.124;6.226;2024-02-23T02:32:02;4.32;;;2.10;;
76021;SDS011;64718;52.124;6.226;2024-02-23T02:34:28;12.70;;;2.45;;
76021;SDS011;64718;52.124;6.226;2024-02-23T02:36:55;3.38;;;2.63;;
76021;SDS011;64718;52.124;6.226;2024-02-23T02:39:21;2.90;;;1.90;;
76021;SDS011;64718;52.124;6.226;2024-02-23T02:41:49;3.38;;;1.60;;
76021;SDS011;64718;52.124;6.226;2024-02-23T02:44:16;10.50;;;1.77;;
76021;SDS011;64718;52.124;6.226;2024-02-23T02:46:42;4.07;;;1.42;;
76021;SDS011;64718;52.124;6.226;2024-02-23T02:49:09;1.95;;;1.75;;
76021;SDS011;64718;52.124;6.226;2024-02-23T02:51:36;2.40;;;1.13;;
76021;SDS011;64718;52.124;6.226;2024-02-23T02:54:02;1.63;;;1.08;;
76021;SDS011;64718;52.124;6.226;2024-02-23T02:56:29;2.30;;;1.65;;
76021;SDS011;64718;52.124;6.226;2024-02-23T02:58:57;1.17;;;1.00;;
76021;SDS011;64718;52.124;6.226;2024-02-23T03:01:23;7.93;;;1.55;;
76021;SDS011;64718;52.124;6.226;2024-02-23T03:03:50;4.15;;;0.93;;
76021;SDS011;64718;52.124;6.226;2024-02-23T03:06:16;1.00;;;0.75;;
76021;SDS011;64718;52.124;6.226;2024-02-23T03:08:43;2.28;;;1.17;;
76021;SDS011;64718;52.124;6.226;2024-02-23T03:11:09;3.10;;;0.63;;
76021;SDS011;64718;52.124;6.226;2024-02-23T03:13:37;1.65;;;0.85;;
76021;SDS011;64718;52.124;6.226;2024-02-23T03:16:05;13.85;;;1.35;;
76021;SDS011;64718;52.124;6.226;2024-02-23T03:18:31;2.53;;;1.50;;
76021;SDS011;64718;52.124;6.226;2024-02-23T03:20:58;4.07;;;1.13;;
76021;SDS011;64718;52.124;6.226;2024-02-23T03:23:24;3.83;;;0.80;;
76021;SDS011;64718;52.124;6.226;2024-02-23T03:25:51;1.17;;;0.85;;
76021;SDS011;64718;52.124;6.226;2024-02-23T03:28:17;3.63;;;1.20;;
76021;SDS011;64718;52.124;6.226;2024-02-23T03:30:44;1.70;;;0.93;;
76021;SDS011;64718;52.124;6.226;2024-02-23T03:33:12;2.33;;;2.15;;
76021;SDS011;64718;52.124;6.226;2024-02-23T03:35:38;4.18;;;1.20;;
76021;SDS011;64718;52.124;6.226;2024-02-23T03:38:05;1.88;;;1.10;;
76021;SDS011;64718;52.124;6.226;2024-02-23T03:40:31;2.63;;;1.27;;
76021;SDS011;64718;52.124;6.226;2024-02-23T03:42:59;1.35;;;0.70;;
76021;SDS011;64718;52.124;6.226;2024-02-23T03:45:25;1.50;;;1.05;;
76021;SDS011;64718;52.124;6.226;2024-02-23T03:47:52;1.42;;;1.02;;
76021;SDS011;64718;52.124;6.226;2024-02-23T03:50:19;1.38;;;0.95;;
76021;SDS011;64718;52.124;6.226;2024-02-23T03:52:46;5.47;;;1.05;;
76021;SDS011;64718;52.124;6.226;2024-02-23T03:55:13;3.65;;;1.30;;
76021;SDS011;64718;52.124;6.226;2024-02-23T03:57:39;3.40;;;0.80;;
76021;SDS011;64718;52.124;6.226;2024-02-23T04:00:06;8.23;;;1.02;;
76021;SDS011;64718;52.124;6.226;2024-02-23T04:02:34;2.75;;;1.38;;
76021;SDS011;64718;52.124;6.226;2024-02-23T04:05:00;1.02;;;0.88;;
76021;SDS011;64718;52.124;6.226;2024-02-23T04:07:28;2.55;;;0.85;;
76021;SDS011;64718;52.124;6.226;2024-02-23T04:09:55;3.70;;;0.88;;
76021;SDS011;64718;52.124;6.226;2024-02-23T04:12:21;3.42;;;1.65;;
76021;SDS011;64718;52.124;6.226;2024-02-23T04:14:50;1.65;;;1.23;;
76021;SDS011;64718;52.124;6.226;2024-02-23T04:17:16;2.85;;;0.57;;
76021;SDS011;64718;52.124;6.226;2024-02-23T04:19:44;2.88;;;1.00;;
76021;SDS011;64718;52.124;6.226;2024-02-23T04:22:10;3.38;;;0.95;;
76021;SDS011;64718;52.124;6.226;2024-02-23T04:24:39;5.43;;;0.85;;
76021;SDS011;64718;52.124;6.226;2024-02-23T04:29:33;2.33;;;1.15;;
76021;SDS011;64718;52.124;6.226;2024-02-23T04:31:59;1.95;;;1.02;;
76021;SDS011;64718;52.124;6.226;2024-02-23T04:34:26;2.15;;;0.95;;
76021;SDS011;64718;52.124;6.226;2024-02-23T04:36:53;1.58;;;0.38;;
76021;SDS011;64718;52.124;6.226;2024-02-23T04:39:20;4.13;;;0.73;;
76021;SDS011;64718;52.124;6.226;2024-02-23T04:41:48;6.22;;;1.60;;
76021;SDS011;64718;52.124;6.226;2024-02-23T04:44:14;3.70;;;0.75;;
76021;SDS011;64718;52.124;6.226;2024-02-23T04:46:41;0.60;;;0.50;;
76021;SDS011;64718;52.124;6.226;2024-02-23T04:49:08;1.50;;;0.57;;
76021;SDS011;64718;52.124;6.226;2024-02-23T04:51:36;4.68;;;0.80;;
76021;SDS011;64718;52.124;6.226;2024-02-23T04:54:03;0.98;;;0.93;;
76021;SDS011;64718;52.124;6.226;2024-02-23T04:56:30;3.35;;;1.42;;
76021;SDS011;64718;52.124;6.226;2024-02-23T04:58:57;3.95;;;1.23;;
76021;SDS011;64718;52.124;6.226;2024-02-23T05:01:24;5.40;;;1.42;;
76021;SDS011;64718;52.124;6.226;2024-02-23T05:03:50;2.67;;;0.80;;
76021;SDS011;64718;52.124;6.226;2024-02-23T05:06:17;3.22;;;1.30;;
76021;SDS011;64718;52.124;6.226;2024-02-23T05:08:44;4.70;;;1.23;;
76021;SDS011;64718;52.124;6.226;2024-02-23T05:11:10;1.20;;;1.10;;
76021;SDS011;64718;52.124;6.226;2024-02-23T05:13:37;3.50;;;1.52;;
76021;SDS011;64718;52.124;6.226;2024-02-23T05:16:08;3.22;;;1.17;;
76021;SDS011;64718;52.124;6.226;2024-02-23T05:18:34;3.25;;;1.10;;
76021;SDS011;64718;52.124;6.226;2024-02-23T05:21:01;2.97;;;1.58;;
76021;SDS011;64718;52.124;6.226;2024-02-23T05:23:27;2.47;;;1.30;;
76021;SDS011;64718;52.124;6.226;2024-02-23T05:25:54;3.65;;;1.05;;
76021;SDS011;64718;52.124;6.226;2024-02-23T05:28:20;2.40;;;0.82;;
76021;SDS011;64718;52.124;6.226;2024-02-23T05:30:47;3.45;;;1.15;;
76021;SDS011;64718;52.124;6.226;2024-02-23T05:33:15;1.83;;;1.35;;
76021;SDS011;64718;52.124;6.226;2024-02-23T05:35:41;4.60;;;0.52;;
76021;SDS011;64718;52.124;6.226;2024-02-23T05:38:08;5.25;;;1.17;;
76021;SDS011;64718;52.124;6.226;2024-02-23T05:40:34;2.78;;;0.98;;
76021;SDS011;64718;52.124;6.226;2024-02-23T05:43:01;2.20;;;1.15;;
76021;SDS011;64718;52.124;6.226;2024-02-23T05:45:27;1.48;;;1.10;;
76021;SDS011;64718;52.124;6.226;2024-02-23T05:47:54;5.57;;;1.02;;
76021;SDS011;64718;52.124;6.226;2024-02-23T05:50:22;2.50;;;1.20;;
76021;SDS011;64718;52.124;6.226;2024-02-23T05:52:49;2.80;;;1.30;;
76021;SDS011;64718;52.124;6.226;2024-02-23T05:55:15;5.15;;;1.00;;
76021;SDS011;64718;52.124;6.226;2024-02-23T05:57:42;1.92;;;1.10;;
76021;SDS011;64718;52.124;6.226;2024-02-23T06:00:09;2.22;;;1.05;;
76021;SDS011;64718;52.124;6.226;2024-02-23T06:02:36;1.55;;;1.45;;
76021;SDS011;64718;52.124;6.226;2024-02-23T06:05:04;4.80;;;2.20;;
76021;SDS011;64718;52.124;6.226;2024-02-23T06:10:00;2.13;;;1.80;;
76021;SDS011;64718;52.124;6.226;2024-02-23T06:12:27;3.05;;;1.33;;
76021;SDS011;64718;52.124;6.226;2024-02-23T06:14:54;4.90;;;1.55;;
76021;SDS011;64718;52.124;6.226;2024-02-23T06:17:22;2.58;;;1.20;;
76021;SDS011;64718;52.124;6.226;2024-02-23T06:19:48;2.13;;;1.75;;
76021;SDS011;64718;52.124;6.226;2024-02-23T06:22:15;2.17;;;1.05;;
76021;SDS011;64718;52.124;6.226;2024-02-23T06:24:47;3.10;;;2.28;;
76021;SDS011;64718;52.124;6.226;2024-02-23T06:27:13;3.60;;;0.80;;
76021;SDS011;64718;52.124;6.226;2024-02-23T06:29:40;2.67;;;1.50;;
76021;SDS011;64718;52.124;6.226;2024-02-23T06:32:06;3.33;;;1.85;;
76021;SDS011;64718;52.124;6.226;2024-02-23T06:34:33;1.92;;;1.05;;
76021;SDS011;64718;52.124;6.226;2024-02-23T06:37:00;5.20;;;1.35;;
76021;SDS011;64718;52.124;6.226;2024-02-23T06:39:28;2.17;;;0.70;;
76021;SDS011;64718;52.124;6.226;2024-02-23T06:41:56;3.47;;;0.95;;
76021;SDS011;64718;52.124;6.226;2024-02-23T06:44:25;3.53;;;0.82;;
76021;SDS011;64718;52.124;6.226;2024-02-23T06:46:52;1.02;;;0.77;;
76021;SDS011;64718;52.124;6.226;2024-02-23T06:49:18;1.48;;;0.73;;
76021;SDS011;64718;52.124;6.226;2024-02-23T06:51:45;2.45;;;1.05;;
76021;SDS011;64718;52.124;6.226;2024-02-23T06:54:11;3.05;;;1.10;;
76021;SDS011;64718;52.124;6.226;2024-02-23T06:56:38;3.53;;;1.38;;
76021;SDS011;64718;52.124;6.226;2024-02-23T06:59:06;2.95;;;1.00;;
76021;SDS011;64718;52.124;6.226;2024-02-23T07:01:32;1.42;;;0.70;;
76021;SDS011;64718;52.124;6.226;2024-02-23T07:04:00;1.70;;;1.10;;
76021;SDS011;64718;52.124;6.226;2024-02-23T07:06:27;0.73;;;0.73;;
76021;SDS011;64718;52.124;6.226;2024-02-23T07:08:56;2.42;;;0.93;;
76021;SDS011;64718;52.124;6.226;2024-02-23T07:11:22;3.08;;;1.00;;
76021;SDS011;64718;52.124;6.226;2024-02-23T07:13:49;0.80;;;0.80;;
76021;SDS011;64718;52.124;6.226;2024-02-23T07:16:18;6.20;;;0.88;;
76021;SDS011;64718;52.124;6.226;2024-02-23T07:18:45;4.47;;;0.95;;
76021;SDS011;64718;52.124;6.226;2024-02-23T07:21:11;1.90;;;0.85;;
76021;SDS011;64718;52.124;6.226;2024-02-23T07:23:38;0.70;;;0.70;;
76021;SDS011;64718;52.124;6.226;2024-02-23T07:26:04;2.15;;;0.95;;
76021;SDS011;64718;52.124;6.226;2024-02-23T07:28:31;1.38;;;0.68;;
76021;SDS011;64718;52.124;6.226;2024-02-23T07:30:58;3.25;;;0.88;;
76021;SDS011;64718;52.124;6.226;2024-02-23T07:33:26;1.70;;;0.70;;
76021;SDS011;64718;52.124;6.226;2024-02-23T07:35:52;2.50;;;0.93;;
76021;SDS011;64718;52.124;6.226;2024-02-23T07:38:19;3.55;;;1.35;;
76021;SDS011;64718;52.124;6.226;2024-02-23T07:40:45;3.22;;;1.00;;
76021;SDS011;64718;52.124;6.226;2024-02-23T07:43:12;0.68;;;0.68;;
76021;SDS011;64718;52.124;6.226;2024-02-23T07:45:39;2.40;;;0.22;;
76021;SDS011;64718;52.124;6.226;2024-02-23T07:48:05;0.75;;;0.65;;
76021;SDS011;64718;52.124;6.226;2024-02-23T07:50:35;5.35;;;0.82;;
76021;SDS011;64718;52.124;6.226;2024-02-23T07:53:01;1.75;;;0.63;;
76021;SDS011;64718;52.124;6.226;2024-02-23T07:55:29;3.60;;;0.82;;
76021;SDS011;64718;52.124;6.226;2024-02-23T07:57:56;2.13;;;1.08;;
76021;SDS011;64718;52.124;6.226;2024-02-23T08:00:26;5.40;;;1.50;;
76021;SDS011;64718;52.124;6.226;2024-02-23T08:02:52;2.72;;;1.15;;
76021;SDS011;64718;52.124;6.226;2024-02-23T08:05:21;1.58;;;0.68;;
76021;SDS011;64718;52.124;6.226;2024-02-23T08:07:49;1.95;;;0.60;;
76021;SDS011;64718;52.124;6.226;2024-02-23T08:10:16;2.35;;;0.75;;
76021;SDS011;64718;52.124;6.226;2024-02-23T08:12:42;1.50;;;0.85;;
76021;SDS011;64718;52.124;6.226;2024-02-23T08:15:09;5.40;;;1.17;;
76021;SDS011;64718;52.124;6.226;2024-02-23T08:17:35;3.58;;;1.05;;
76021;SDS011;64718;52.124;6.226;2024-02-23T08:20:02;3.92;;;1.25;;
76021;SDS011;64718;52.124;6.226;2024-02-23T08:22:30;3.60;;;1.13;;
76021;SDS011;64718;52.124;6.226;2024-02-23T08:24:58;1.83;;;0.88;;
76021;SDS011;64718;52.124;6.226;2024-02-23T08:27:24;3.20;;;0.70;;
76021;SDS011;64718;52.124;6.226;2024-02-23T08:29:51;4.60;;;0.93;;
76021;SDS011;64718;52.124;6.226;2024-02-23T08:32:17;3.70;;;1.40;;
76021;SDS011;64718;52.124;6.226;2024-02-23T08:34:44;1.15;;;0.80;;
76021;SDS011;64718;52.124;6.226;2024-02-23T08:37:10;2.75;;;1.02;;
76021;SDS011;64718;52.124;6.226;2024-02-23T08:39:37;3.47;;;1.45;;
76021;SDS011;64718;52.124;6.226;2024-02-23T08:42:05;4.43;;;1.30;;
76021;SDS011;64718;52.124;6.226;2024-02-23T08:44:31;1.58;;;1.20;;
76021;SDS011;64718;52.124;6.226;2024-02-23T08:46:58;1.80;;;0.70;;
76021;SDS011;64718;52.124;6.226;2024-02-23T08:49:24;0.70;;;0.70;;
76021;SDS011;64718;52.124;6.226;2024-02-23T08:51:51;2.28;;;1.00;;
76021;SDS011;64718;52.124;6.226;2024-02-23T08:54:17;1.95;;;1.35;;
76021;SDS011;64718;52.124;6.226;2024-02-23T08:56:44;1.27;;;1.15;;
76021;SDS011;64718;52.124;6.226;2024-02-23T08:59:12;3.85;;;1.23;;
76021;SDS011;64718;52.124;6.226;2024-02-23T09:01:38;2.65;;;0.93;;
76021;SDS011;64718;52.124;6.226;2024-02-23T09:04:05;2.97;;;1.30;;
76021;SDS011;64718;52.124;6.226;2024-02-23T09:06:31;3.22;;;0.77;;
76021;SDS011;64718;52.124;6.226;2024-02-23T09:08:58;3.80;;;1.08;;
76021;SDS011;64718;52.124;6.226;2024-02-23T09:11:25;3.17;;;1.00;;
76021;SDS011;64718;52.124;6.226;2024-02-23T09:13:52;2.85;;;1.90;;
76021;SDS011;64718;52.124;6.226;2024-02-23T09:16:20;2.22;;;0.88;;
76021;SDS011;64718;52.124;6.226;2024-02-23T09:18:48;0.95;;;0.93;;
76021;SDS011;64718;52.124;6.226;2024-02-23T09:21:14;0.75;;;0.75;;
76021;SDS011;64718;52.124;6.226;2024-02-23T09:23:41;2.45;;;1.50;;
76021;SDS011;64718;52.124;6.226;2024-02-23T09:26:11;1.65;;;0.98;;
76021;SDS011;64718;52.124;6.226;2024-02-23T09:28:37;2.47;;;0.90;;
76021;SDS011;64718;52.124;6.226;2024-02-23T09:31:06;2.63;;;0.80;;
76021;SDS011;64718;52.124;6.226;2024-02-23T09:33:33;3.53;;;0.80;;
76021;SDS011;64718;52.124;6.226;2024-02-23T09:36:00;2.60;;;1.30;;
76021;SDS011;64718;52.124;6.226;2024-02-23T09:38:27;1.77;;;0.88;;
76021;SDS011;64718;52.124;6.226;2024-02-23T09:40:53;1.40;;;0.60;;
76021;SDS011;64718;52.124;6.226;2024-02-23T09:43:20;2.20;;;1.25;;
76021;SDS011;64718;52.124;6.226;2024-02-23T09:45:50;3.92;;;0.93;;
76021;SDS011;64718;52.124;6.226;2024-02-23T09:48:17;4.22;;;1.48;;
76021;SDS011;64718;52.124;6.226;2024-02-23T09:50:46;2.47;;;1.98;;
76021;SDS011;64718;52.124;6.226;2024-02-23T09:53:14;1.83;;;0.85;;
76021;SDS011;64718;52.124;6.226;2024-02-23T09:55:41;3.22;;;0.63;;
76021;SDS011;64718;52.124;6.226;2024-02-23T09:58:09;2.25;;;1.20;;
76021;SDS011;64718;52.124;6.226;2024-02-23T10:03:05;3.15;;;0.70;;
76021;SDS011;64718;52.124;6.226;2024-02-23T10:05:32;1.15;;;0.70;;
76021;SDS011;64718;52.124;6.226;2024-02-23T10:08:00;2.97;;;0.73;;
76021;SDS011;64718;52.124;6.226;2024-02-23T10:10:29;1.10;;;0.80;;
76021;SDS011;64718;52.124;6.226;2024-02-23T10:12:56;1.98;;;1.02;;
76021;SDS011;64718;52.124;6.226;2024-02-23T10:15:23;3.35;;;0.70;;
76021;SDS011;64718;52.124;6.226;2024-02-23T10:17:50;3.03;;;0.68;;
76021;SDS011;64718;52.124;6.226;2024-02-23T10:20:16;1.23;;;0.68;;
76021;SDS011;64718;52.124;6.226;2024-02-23T10:22:44;2.72;;;0.93;;
76021;SDS011;64718;52.124;6.226;2024-02-23T10:25:13;4.85;;;1.25;;
76021;SDS011;64718;52.124;6.226;2024-02-23T10:27:40;2.47;;;0.80;;
76021;SDS011;64718;52.124;6.226;2024-02-23T10:30:07;2.05;;;1.02;;
76021;SDS011;64718;52.124;6.226;2024-02-23T10:32:36;1.75;;;0.70;;
76021;SDS011;64718;52.124;6.226;2024-02-23T10:35:04;5.07;;;1.05;;
76021;SDS011;64718;52.124;6.226;2024-02-23T10:37:36;1.88;;;0.22;;
76021;SDS011;64718;52.124;6.226;2024-02-23T10:40:03;3.10;;;1.15;;
76021;SDS011;64718;52.124;6.226;2024-02-23T10:42:36;5.65;;;1.17;;
76021;SDS011;64718;52.124;6.226;2024-02-23T10:45:05;3.95;;;0.50;;
76021;SDS011;64718;52.124;6.226;2024-02-23T10:47:33;1.50;;;0.90;;
76021;SDS011;64718;52.124;6.226;2024-02-23T10:50:01;3.80;;;0.65;;
76021;SDS011;64718;52.124;6.226;2024-02-23T10:52:30;5.05;;;1.20;;
76021;SDS011;64718;52.124;6.226;2024-02-23T10:54:58;3.50;;;1.35;;
76021;SDS011;64718;52.124;6.226;2024-02-23T10:57:29;2.55;;;1.00;;
76021;SDS011;64718;52.124;6.226;2024-02-23T10:59:58;1.88;;;0.65;;
76021;SDS011;64718;52.124;6.226;2024-02-23T11:02:24;1.73;;;1.10;;
76021;SDS011;64718;52.124;6.226;2024-02-23T11:04:54;2.80;;;1.20;;
76021;SDS011;64718;52.124;6.226;2024-02-23T11:07:23;2.22;;;1.40;;
76021;SDS011;64718;52.124;6.226;2024-02-23T11:09:51;3.55;;;1.20;;
76021;SDS011;64718;52.124;6.226;2024-02-23T11:12:22;0.93;;;0.60;;
76021;SDS011;64718;52.124;6.226;2024-02-23T11:14:50;5.25;;;1.48;;
76021;SDS011;64718;52.124;6.226;2024-02-23T11:17:18;1.30;;;1.20;;
76021;SDS011;64718;52.124;6.226;2024-02-23T11:19:46;2.17;;;0.70;;
76021;SDS011;64718;52.124;6.226;2024-02-23T11:22:23;2.10;;;1.42;;
76021;SDS011;64718;52.124;6.226;2024-02-23T11:24:51;3.45;;;1.13;;
76021;SDS011;64718;52.124;6.226;2024-02-23T11:27:17;2.95;;;1.00;;
76021;SDS011;64718;52.124;6.226;2024-02-23T11:29:45;1.40;;;0.98;;
76021;SDS011;64718;52.124;6.226;2024-02-23T11:32:12;1.60;;;0.70;;
76021;SDS011;64718;52.124;6.226;2024-02-23T11:34:41;0.32;;;0.32;;
76021;SDS011;64718;52.124;6.226;2024-02-23T11:37:09;0.73;;;0.45;;
76021;SDS011;64718;52.124;6.226;2024-02-23T11:39:37;1.58;;;0.95;;
76021;SDS011;64718;52.124;6.226;2024-02-23T11:42:04;2.72;;;0.68;;
76021;SDS011;64718;52.124;6.226;2024-02-23T11:44:31;1.05;;;0.73;;
76021;SDS011;64718;52.124;6.226;2024-02-23T11:46:58;0.35;;;0.13;;
76021;SDS011;64718;52.124;6.226;2024-02-23T11:49:27;1.15;;;1.02;;
76021;SDS011;64718;52.124;6.226;2024-02-23T11:51:55;1.27;;;0.95;;
76021;SDS011;64718;52.124;6.226;2024-02-23T11:54:22;0.82;;;0.82;;
76021;SDS011;64718;52.124;6.226;2024-02-23T11:56:49;2.47;;;0.95;;
76021;SDS011;64718;52.124;6.226;2024-02-23T11:59:17;2.15;;;0.60;;
76021;SDS011;64718;52.124;6.226;2024-02-23T12:01:45;1.58;;;0.88;;
76021;SDS011;64718;52.124;6.226;2024-02-23T12:04:12;1.00;;;0.43;;
76021;SDS011;64718;52.124;6.226;2024-02-23T12:06:39;1.75;;;0.50;;
76021;SDS011;64718;52.124;6.226;2024-02-23T12:09:07;1.00;;;0.63;;
76021;SDS011;64718;52.124;6.226;2024-02-23T12:11:34;1.00;;;0.52;;
76021;SDS011;64718;52.124;6.226;2024-02-23T12:14:01;1.50;;;0.90;;
76021;SDS011;64718;52.124;6.226;2024-02-23T12:16:32;2.53;;;0.60;;
76021;SDS011;64718;52.124;6.226;2024-02-23T12:19:00;1.92;;;0.22;;
76021;SDS011;64718;52.124;6.226;2024-02-23T12:21:27;1.67;;;0.88;;
76021;SDS011;64718;52.124;6.226;2024-02-23T12:23:54;1.60;;;0.50;;
76021;SDS011;64718;52.124;6.226;2024-02-23T12:26:22;0.70;;;0.70;;
76021;SDS011;64718;52.124;6.226;2024-02-23T12:28:49;2.35;;;1.00;;
76021;SDS011;64718;52.124;6.226;2024-02-23T12:31:15;2.13;;;2.03;;
76021;SDS011;64718;52.124;6.226;2024-02-23T12:33:42;2.40;;;0.40;;
76021;SDS011;64718;52.124;6.226;2024-02-23T12:36:13;2.00;;;1.02;;
76021;SDS011;64718;52.124;6.226;2024-02-23T12:38:39;1.65;;;0.70;;
76021;SDS011;64718;52.124;6.226;2024-02-23T12:41:06;2.03;;;0.57;;
76021;SDS011;64718;52.124;6.226;2024-02-23T12:43:34;3.20;;;0.90;;
76021;SDS011;64718;52.124;6.226;2024-02-23T12:46:00;1.23;;;1.08;;
76021;SDS011;64718;52.124;6.226;2024-02-23T12:48:28;1.35;;;0.77;;
76021;SDS011;64718;52.124;6.226;2024-02-23T12:50:55;1.48;;;1.48;;
76021;SDS011;64718;52.124;6.226;2024-02-23T12:53:31;3.70;;;1.00;;
76021;SDS011;64718;52.124;6.226;2024-02-23T12:55:59;0.70;;;0.70;;
76021;SDS011;64718;52.124;6.226;2024-02-23T12:58:27;2.70;;;1.40;;
76021;SDS011;64718;52.124;6.226;2024-02-23T13:00:55;1.90;;;0.80;;
76021;SDS011;64718;52.124;6.226;2024-02-23T13:03:22;2.70;;;0.75;;
76021;SDS011;64718;52.124;6.226;2024-02-23T13:05:50;1.20;;;1.10;;
76021;SDS011;64718;52.124;6.226;2024-02-23T13:08:16;5.18;;;0.77;;
76021;SDS011;64718;52.124;6.226;2024-02-23T13:10:43;2.00;;;0.77;;
76021;SDS011;64718;52.124;6.226;2024-02-23T13:13:10;3.08;;;0.90;;
76021;SDS011;64718;52.124;6.226;2024-02-23T13:15:37;2.55;;;0.88;;
76021;SDS011;64718;52.124;6.226;2024-02-23T13:18:06;2.90;;;1.08;;
76021;SDS011;64718;52.124;6.226;2024-02-23T13:20:32;4.00;;;0.95;;
76021;SDS011;64718;52.124;6.226;2024-02-23T13:22:59;2.75;;;1.02;;
76021;SDS011;64718;52.124;6.226;2024-02-23T13:25:25;1.27;;;0.50;;
76021;SDS011;64718;52.124;6.226;2024-02-23T13:27:52;1.55;;;0.80;;
76021;SDS011;64718;52.124;6.226;2024-02-23T13:30:18;2.90;;;0.85;;
76021;SDS011;64718;52.124;6.226;2024-02-23T13:32:45;2.33;;;1.00;;
76021;SDS011;64718;52.124;6.226;2024-02-23T13:35:13;3.78;;;1.15;;
76021;SDS011;64718;52.124;6.226;2024-02-23T13:37:40;3.55;;;1.27;;
76021;SDS011;64718;52.124;6.226;2024-02-23T13:40:07;2.80;;;0.90;;
76021;SDS011;64718;52.124;6.226;2024-02-23T13:42:34;3.50;;;1.10;;
76021;SDS011;64718;52.124;6.226;2024-02-23T13:45:03;1.75;;;1.33;;
76021;SDS011;64718;52.124;6.226;2024-02-23T13:47:30;0.60;;;0.60;;
76021;SDS011;64718;52.124;6.226;2024-02-23T13:49:56;2.00;;;0.40;;
76021;SDS011;64718;52.124;6.226;2024-02-23T13:52:24;1.95;;;0.68;;
76021;SDS011;64718;52.124;6.226;2024-02-23T13:54:51;2.22;;;0.75;;
76021;SDS011;64718;52.124;6.226;2024-02-23T13:57:18;5.13;;;1.35;;
76021;SDS011;64718;52.124;6.226;2024-02-23T13:59:44;0.80;;;0.80;;
76021;SDS011;64718;52.124;6.226;2024-02-23T14:02:11;1.60;;;0.82;;
76021;SDS011;64718;52.124;6.226;2024-02-23T14:04:38;0.73;;;0.60;;
76021;SDS011;64718;52.124;6.226;2024-02-23T14:07:04;1.70;;;1.15;;
76021;SDS011;64718;52.124;6.226;2024-02-23T14:09:32;2.35;;;0.95;;
76021;SDS011;64718;52.124;6.226;2024-02-23T14:11:59;1.23;;;0.98;;
76021;SDS011;64718;52.124;6.226;2024-02-23T14:14:25;0.90;;;0.85;;
76021;SDS011;64718;52.124;6.226;2024-02-23T14:16:52;2.35;;;1.15;;
76021;SDS011;64718;52.124;6.226;2024-02-23T14:19:19;2.10;;;0.88;;
76021;SDS011;64718;52.124;6.226;2024-02-23T14:21:45;1.23;;;0.85;;
76021;SDS011;64718;52.124;6.226;2024-02-23T14:24:13;2.10;;;1.10;;
76021;SDS011;64718;52.124;6.226;2024-02-23T14:26:41;1.08;;;0.90;;
76021;SDS011;64718;52.124;6.226;2024-02-23T14:29:08;2.03;;;1.50;;
76021;SDS011;64718;52.124;6.226;2024-02-23T14:31:34;1.45;;;1.08;;
76021;SDS011;64718;52.124;6.226;2024-02-23T14:34:01;2.35;;;1.10;;
76021;SDS011;64718;52.124;6.226;2024-02-23T14:36:27;2.38;;;0.60;;
76021;SDS011;64718;52.124;6.226;2024-02-23T14:38:58;1.50;;;0.95;;
76021;SDS011;64718;52.124;6.226;2024-02-23T14:41:25;2.15;;;0.70;;
76021;SDS011;64718;52.124;6.226;2024-02-23T14:43:54;2.15;;;0.82;;
76021;SDS011;64718;52.124;6.226;2024-02-23T14:46:20;2.03;;;0.93;;
76021;SDS011;64718;52.124;6.226;2024-02-23T14:48:47;1.95;;;0.98;;
76021;SDS011;64718;52.124;6.226;2024-02-23T14:51:13;1.58;;;0.93;;
76021;SDS011;64718;52.124;6.226;2024-02-23T14:53:40;2.08;;;0.93;;
76021;SDS011;64718;52.124;6.226;2024-02-23T14:56:07;2.97;;;1.10;;